sensor_id;sensor_type;location;lat;lon;timestamp;P1;durP1;ratioP1;P2;durP2;ratioP2
2039;SDS011;1025;42.686;23.350;2023-02-15T00:01:54;16.63;;;14.53;;
2039;SDS011;1025;42.686;23.350;2023-02-15T00:04:21;17.40;;;15.73;;
2039;SDS011;1025;42.686;23.350;2023-02-15T00:06:49;15.97;;;14.73;;
2039;SDS011;1025;42.686;23.350;2023-02-15T00:09:16;13.67;;;12.57;;
2039;SDS011;1025;42.686;23.350;2023-02-15T00:11:42;18.47;;;16.73;;
2039;SDS011;1025;42.686;23.350;2023-02-15T00:14:16;20.23;;;16.10;;
2039;SDS011;1025;42.686;23.350;2023-02-15T00:16:43;17.27;;;15.60;;
2039;SDS011;1025;42.686;23.350;2023-02-15T00:19:10;16.90;;;15.30;;
2039;SDS011;1025;42.686;23.350;2023-02-15T00:21:38;14.20;;;13.00;;
2039;SDS011;1025;42.686;23.350;2023-02-15T00:24:07;17.90;;;16.40;;
2039;SDS011;1025;42.686;23.350;2023-02-15T00:26:34;19.57;;;17.40;;
2039;SDS011;1025;42.686;23.350;2023-02-15T00:29:00;15.47;;;13.97;;
2039;SDS011;1025;42.686;23.350;2023-02-15T00:31:27;16.40;;;15.03;;
2039;SDS011;1025;42.686;23.350;2023-02-15T00:33:55;19.40;;;17.17;;
2039;SDS011;1025;42.686;23.350;2023-02-15T00:36:22;13.73;;;12.70;;
2039;SDS011;1025;42.686;23.350;2023-02-15T00:38:48;20.23;;;16.73;;
2039;SDS011;1025;42.686;23.350;2023-02-15T00:41:16;16.00;;;14.60;;
2039;SDS011;1025;42.686;23.350;2023-02-15T00:43:43;24.43;;;16.80;;
2039;SDS011;1025;42.686;23.350;2023-02-15T00:46:09;18.30;;;15.27;;
2039;SDS011;1025;42.686;23.350;2023-02-15T00:48:36;15.53;;;14.20;;
2039;SDS011;1025;42.686;23.350;2023-02-15T00:51:02;28.00;;;15.30;;
2039;SDS011;1025;42.686;23.350;2023-02-15T00:53:29;15.30;;;13.97;;
2039;SDS011;1025;42.686;23.350;2023-02-15T00:55:55;16.10;;;14.60;;
2039;SDS011;1025;42.686;23.350;2023-02-15T00:58:24;17.40;;;16.07;;
2039;SDS011;1025;42.686;23.350;2023-02-15T01:00:51;19.37;;;14.33;;
2039;SDS011;1025;42.686;23.350;2023-02-15T01:03:18;16.63;;;14.87;;
2039;SDS011;1025;42.686;23.350;2023-02-15T01:05:46;14.90;;;13.67;;
2039;SDS011;1025;42.686;23.350;2023-02-15T01:08:13;15.37;;;14.07;;
2039;SDS011;1025;42.686;23.350;2023-02-15T01:10:39;12.57;;;11.37;;
2039;SDS011;1025;42.686;23.350;2023-02-15T01:13:06;14.70;;;13.50;;
2039;SDS011;1025;42.686;23.350;2023-02-15T01:15:35;20.83;;;15.20;;
2039;SDS011;1025;42.686;23.350;2023-02-15T01:18:01;17.00;;;15.40;;
2039;SDS011;1025;42.686;23.350;2023-02-15T01:20:28;14.77;;;13.43;;
2039;SDS011;1025;42.686;23.350;2023-02-15T01:22:56;15.40;;;13.87;;
2039;SDS011;1025;42.686;23.350;2023-02-15T01:25:23;13.37;;;12.37;;
2039;SDS011;1025;42.686;23.350;2023-02-15T01:27:50;14.43;;;13.20;;
2039;SDS011;1025;42.686;23.350;2023-02-15T01:30:17;17.83;;;16.13;;
2039;SDS011;1025;42.686;23.350;2023-02-15T01:32:45;13.30;;;12.17;;
2039;SDS011;1025;42.686;23.350;2023-02-15T01:35:11;15.17;;;13.67;;
2039;SDS011;1025;42.686;23.350;2023-02-15T01:37:38;14.70;;;13.13;;
2039;SDS011;1025;42.686;23.350;2023-02-15T01:40:05;15.03;;;13.37;;
2039;SDS011;1025;42.686;23.350;2023-02-15T01:42:32;17.53;;;16.07;;
2039;SDS011;1025;42.686;23.350;2023-02-15T01:44:59;15.13;;;13.70;;
2039;SDS011;1025;42.686;23.350;2023-02-15T01:47:28;15.30;;;13.70;;
2039;SDS011;1025;42.686;23.350;2023-02-15T01:50:00;14.70;;;13.30;;
2039;SDS011;1025;42.686;23.350;2023-02-15T01:52:27;13.60;;;12.40;;
2039;SDS011;1025;42.686;23.350;2023-02-15T01:54:55;16.63;;;15.27;;
2039;SDS011;1025;42.686;23.350;2023-02-15T01:57:22;12.20;;;11.33;;
2039;SDS011;1025;42.686;23.350;2023-02-15T01:59:51;16.40;;;15.00;;
2039;SDS011;1025;42.686;23.350;2023-02-15T02:02:20;14.23;;;12.97;;
2039;SDS011;1025;42.686;23.350;2023-02-15T02:04:49;15.73;;;14.13;;
2039;SDS011;1025;42.686;23.350;2023-02-15T02:07:18;13.70;;;12.57;;
2039;SDS011;1025;42.686;23.350;2023-02-15T02:09:45;14.57;;;13.40;;
2039;SDS011;1025;42.686;23.350;2023-02-15T02:12:12;16.33;;;13.87;;
2039;SDS011;1025;42.686;23.350;2023-02-15T02:14:39;15.90;;;14.30;;
2039;SDS011;1025;42.686;23.350;2023-02-15T02:17:06;15.03;;;13.70;;
2039;SDS011;1025;42.686;23.350;2023-02-15T02:25:43;13.10;;;12.00;;
2039;SDS011;1025;42.686;23.350;2023-02-15T02:28:20;17.23;;;15.43;;
2039;SDS011;1025;42.686;23.350;2023-02-15T02:31:07;24.23;;;15.77;;
2039;SDS011;1025;42.686;23.350;2023-02-15T02:33:44;15.27;;;13.70;;
2039;SDS011;1025;42.686;23.350;2023-02-15T02:36:15;16.00;;;14.40;;
2039;SDS011;1025;42.686;23.350;2023-02-15T02:38:48;14.47;;;13.37;;
2039;SDS011;1025;42.686;23.350;2023-02-15T02:41:20;15.27;;;13.97;;
2039;SDS011;1025;42.686;23.350;2023-02-15T02:43:51;14.00;;;12.90;;
2039;SDS011;1025;42.686;23.350;2023-02-15T02:46:20;12.23;;;11.33;;
2039;SDS011;1025;42.686;23.350;2023-02-15T02:48:49;13.90;;;12.80;;
2039;SDS011;1025;42.686;23.350;2023-02-15T02:51:16;14.80;;;13.47;;
2039;SDS011;1025;42.686;23.350;2023-02-15T02:53:47;14.30;;;12.83;;
2039;SDS011;1025;42.686;23.350;2023-02-15T02:56:17;15.87;;;14.43;;
2039;SDS011;1025;42.686;23.350;2023-02-15T02:58:45;15.70;;;14.40;;
2039;SDS011;1025;42.686;23.350;2023-02-15T03:01:13;14.77;;;13.43;;
2039;SDS011;1025;42.686;23.350;2023-02-15T03:03:42;16.00;;;14.40;;
2039;SDS011;1025;42.686;23.350;2023-02-15T03:06:14;16.90;;;15.13;;
2039;SDS011;1025;42.686;23.350;2023-02-15T03:08:44;13.40;;;12.20;;
2039;SDS011;1025;42.686;23.350;2023-02-15T03:11:12;15.70;;;13.83;;
2039;SDS011;1025;42.686;23.350;2023-02-15T03:13:39;15.13;;;13.97;;
2039;SDS011;1025;42.686;23.350;2023-02-15T03:16:06;13.80;;;12.80;;
2039;SDS011;1025;42.686;23.350;2023-02-15T03:18:51;14.03;;;12.63;;
2039;SDS011;1025;42.686;23.350;2023-02-15T03:21:25;13.17;;;12.07;;
2039;SDS011;1025;42.686;23.350;2023-02-15T03:23:54;11.77;;;10.87;;
2039;SDS011;1025;42.686;23.350;2023-02-15T03:26:23;16.60;;;13.97;;
2039;SDS011;1025;42.686;23.350;2023-02-15T03:28:50;13.60;;;12.60;;
2039;SDS011;1025;42.686;23.350;2023-02-15T03:31:18;13.43;;;12.43;;
2039;SDS011;1025;42.686;23.350;2023-02-15T03:33:48;15.27;;;13.77;;
2039;SDS011;1025;42.686;23.350;2023-02-15T03:36:17;12.87;;;11.77;;
2039;SDS011;1025;42.686;23.350;2023-02-15T03:38:47;14.07;;;13.00;;
2039;SDS011;1025;42.686;23.350;2023-02-15T03:41:17;13.77;;;12.57;;
2039;SDS011;1025;42.686;23.350;2023-02-15T03:43:45;12.10;;;11.10;;
2039;SDS011;1025;42.686;23.350;2023-02-15T03:46:15;16.60;;;14.43;;
2039;SDS011;1025;42.686;23.350;2023-02-15T03:48:45;14.17;;;12.47;;
2039;SDS011;1025;42.686;23.350;2023-02-15T03:51:14;17.27;;;13.00;;
2039;SDS011;1025;42.686;23.350;2023-02-15T03:54:04;13.27;;;12.10;;
2039;SDS011;1025;42.686;23.350;2023-02-15T03:56:33;13.17;;;11.77;;
2039;SDS011;1025;42.686;23.350;2023-02-15T03:59:00;13.20;;;12.17;;
2039;SDS011;1025;42.686;23.350;2023-02-15T04:01:46;14.00;;;12.37;;
2039;SDS011;1025;42.686;23.350;2023-02-15T04:04:35;14.00;;;12.80;;
2039;SDS011;1025;42.686;23.350;2023-02-15T04:07:02;13.17;;;11.87;;
2039;SDS011;1025;42.686;23.350;2023-02-15T04:09:31;14.90;;;13.37;;
2039;SDS011;1025;42.686;23.350;2023-02-15T04:12:15;17.70;;;13.30;;
2039;SDS011;1025;42.686;23.350;2023-02-15T04:14:44;14.60;;;13.27;;
2039;SDS011;1025;42.686;23.350;2023-02-15T04:17:42;13.00;;;12.03;;
2039;SDS011;1025;42.686;23.350;2023-02-15T04:20:09;14.97;;;13.43;;
2039;SDS011;1025;42.686;23.350;2023-02-15T04:22:53;13.87;;;12.20;;
2039;SDS011;1025;42.686;23.350;2023-02-15T04:25:38;12.90;;;11.87;;
2039;SDS011;1025;42.686;23.350;2023-02-15T04:28:05;17.17;;;11.90;;
2039;SDS011;1025;42.686;23.350;2023-02-15T04:30:32;12.27;;;11.47;;
2039;SDS011;1025;42.686;23.350;2023-02-15T04:32:59;12.77;;;11.63;;
2039;SDS011;1025;42.686;23.350;2023-02-15T04:35:25;16.13;;;14.73;;
2039;SDS011;1025;42.686;23.350;2023-02-15T04:37:52;13.80;;;12.57;;
2039;SDS011;1025;42.686;23.350;2023-02-15T04:40:18;14.10;;;13.00;;
2039;SDS011;1025;42.686;23.350;2023-02-15T04:42:48;14.70;;;13.03;;
2039;SDS011;1025;42.686;23.350;2023-02-15T04:45:15;14.73;;;13.37;;
2039;SDS011;1025;42.686;23.350;2023-02-15T04:47:42;14.43;;;13.03;;
2039;SDS011;1025;42.686;23.350;2023-02-15T04:50:08;13.73;;;12.73;;
2039;SDS011;1025;42.686;23.350;2023-02-15T04:52:35;14.07;;;13.00;;
2039;SDS011;1025;42.686;23.350;2023-02-15T04:55:02;13.40;;;12.40;;
2039;SDS011;1025;42.686;23.350;2023-02-15T04:57:29;13.60;;;12.50;;
2039;SDS011;1025;42.686;23.350;2023-02-15T04:59:56;14.13;;;12.93;;
2039;SDS011;1025;42.686;23.350;2023-02-15T05:02:24;14.60;;;13.50;;
2039;SDS011;1025;42.686;23.350;2023-02-15T05:04:50;13.40;;;11.70;;
2039;SDS011;1025;42.686;23.350;2023-02-15T05:07:17;15.87;;;14.53;;
2039;SDS011;1025;42.686;23.350;2023-02-15T05:09:45;13.60;;;12.60;;
2039;SDS011;1025;42.686;23.350;2023-02-15T05:12:11;14.77;;;13.67;;
2039;SDS011;1025;42.686;23.350;2023-02-15T05:14:38;16.27;;;14.60;;
2039;SDS011;1025;42.686;23.350;2023-02-15T05:17:06;14.40;;;13.30;;
2039;SDS011;1025;42.686;23.350;2023-02-15T05:19:32;14.37;;;12.97;;
2039;SDS011;1025;42.686;23.350;2023-02-15T05:21:59;14.47;;;13.23;;
2039;SDS011;1025;42.686;23.350;2023-02-15T05:24:25;15.70;;;14.40;;
2039;SDS011;1025;42.686;23.350;2023-02-15T05:27:10;15.00;;;13.90;;
2039;SDS011;1025;42.686;23.350;2023-02-15T05:29:54;17.77;;;12.73;;
2039;SDS011;1025;42.686;23.350;2023-02-15T05:32:22;17.57;;;15.80;;
2039;SDS011;1025;42.686;23.350;2023-02-15T05:34:48;14.00;;;12.80;;
2039;SDS011;1025;42.686;23.350;2023-02-15T05:37:15;14.00;;;13.00;;
2039;SDS011;1025;42.686;23.350;2023-02-15T05:39:41;15.13;;;14.03;;
2039;SDS011;1025;42.686;23.350;2023-02-15T05:42:08;16.37;;;15.07;;
2039;SDS011;1025;42.686;23.350;2023-02-15T05:44:34;17.90;;;16.30;;
2039;SDS011;1025;42.686;23.350;2023-02-15T05:47:01;14.17;;;12.83;;
2039;SDS011;1025;42.686;23.350;2023-02-15T05:49:29;29.07;;;14.00;;
2039;SDS011;1025;42.686;23.350;2023-02-15T05:51:56;16.10;;;14.60;;
2039;SDS011;1025;42.686;23.350;2023-02-15T05:54:23;15.47;;;14.03;;
2039;SDS011;1025;42.686;23.350;2023-02-15T05:56:49;13.70;;;12.60;;
2039;SDS011;1025;42.686;23.350;2023-02-15T05:59:16;15.50;;;14.10;;
2039;SDS011;1025;42.686;23.350;2023-02-15T06:01:42;14.67;;;13.47;;
2039;SDS011;1025;42.686;23.350;2023-02-15T06:04:09;15.60;;;14.40;;
2039;SDS011;1025;42.686;23.350;2023-02-15T06:06:37;16.83;;;15.00;;
2039;SDS011;1025;42.686;23.350;2023-02-15T06:09:03;14.50;;;13.17;;
2039;SDS011;1025;42.686;23.350;2023-02-15T06:11:30;14.37;;;12.97;;
2039;SDS011;1025;42.686;23.350;2023-02-15T06:13:56;14.33;;;13.00;;
2039;SDS011;1025;42.686;23.350;2023-02-15T06:16:23;14.83;;;13.33;;
2039;SDS011;1025;42.686;23.350;2023-02-15T06:18:49;12.17;;;10.90;;
2039;SDS011;1025;42.686;23.350;2023-02-15T06:21:16;17.47;;;15.50;;
2039;SDS011;1025;42.686;23.350;2023-02-15T06:23:44;13.87;;;12.63;;
2039;SDS011;1025;42.686;23.350;2023-02-15T06:26:10;15.77;;;14.27;;
2039;SDS011;1025;42.686;23.350;2023-02-15T06:28:37;14.53;;;13.17;;
2039;SDS011;1025;42.686;23.350;2023-02-15T06:31:03;13.60;;;12.60;;
2039;SDS011;1025;42.686;23.350;2023-02-15T06:33:30;14.00;;;12.70;;
2039;SDS011;1025;42.686;23.350;2023-02-15T06:35:58;15.90;;;14.20;;
2039;SDS011;1025;42.686;23.350;2023-02-15T06:38:25;12.00;;;11.10;;
2039;SDS011;1025;42.686;23.350;2023-02-15T06:40:53;16.47;;;14.80;;
2039;SDS011;1025;42.686;23.350;2023-02-15T06:43:19;15.93;;;13.40;;
2039;SDS011;1025;42.686;23.350;2023-02-15T06:45:46;12.90;;;11.53;;
2039;SDS011;1025;42.686;23.350;2023-02-15T06:48:13;14.40;;;13.20;;
2039;SDS011;1025;42.686;23.350;2023-02-15T06:50:39;13.70;;;12.43;;
2039;SDS011;1025;42.686;23.350;2023-02-15T06:53:06;13.53;;;12.23;;
2039;SDS011;1025;42.686;23.350;2023-02-15T06:55:32;15.03;;;13.53;;
2039;SDS011;1025;42.686;23.350;2023-02-15T06:58:00;13.33;;;12.13;;
2039;SDS011;1025;42.686;23.350;2023-02-15T07:00:27;14.20;;;13.03;;
2039;SDS011;1025;42.686;23.350;2023-02-15T07:02:53;12.47;;;11.37;;
2039;SDS011;1025;42.686;23.350;2023-02-15T07:05:21;14.03;;;12.83;;
2039;SDS011;1025;42.686;23.350;2023-02-15T07:07:48;13.87;;;12.67;;
2039;SDS011;1025;42.686;23.350;2023-02-15T07:10:14;13.67;;;12.50;;
2039;SDS011;1025;42.686;23.350;2023-02-15T07:12:41;14.37;;;13.00;;
2039;SDS011;1025;42.686;23.350;2023-02-15T07:15:09;14.47;;;13.27;;
2039;SDS011;1025;42.686;23.350;2023-02-15T07:17:36;12.63;;;11.53;;
2039;SDS011;1025;42.686;23.350;2023-02-15T07:20:03;14.47;;;13.23;;
2039;SDS011;1025;42.686;23.350;2023-02-15T07:22:30;13.67;;;12.40;;
2039;SDS011;1025;42.686;23.350;2023-02-15T07:24:59;12.60;;;11.40;;
2039;SDS011;1025;42.686;23.350;2023-02-15T07:27:25;17.50;;;13.03;;
2039;SDS011;1025;42.686;23.350;2023-02-15T07:29:52;12.53;;;11.33;;
2039;SDS011;1025;42.686;23.350;2023-02-15T07:32:19;17.40;;;11.37;;
2039;SDS011;1025;42.686;23.350;2023-02-15T07:34:46;10.30;;;9.50;;
2039;SDS011;1025;42.686;23.350;2023-02-15T07:37:13;11.73;;;10.63;;
2039;SDS011;1025;42.686;23.350;2023-02-15T07:39:39;13.47;;;11.60;;
2039;SDS011;1025;42.686;23.350;2023-02-15T07:42:06;15.70;;;12.70;;
2039;SDS011;1025;42.686;23.350;2023-02-15T07:44:32;13.70;;;11.63;;
2039;SDS011;1025;42.686;23.350;2023-02-15T07:46:59;12.67;;;11.13;;
2039;SDS011;1025;42.686;23.350;2023-02-15T07:49:27;19.77;;;12.60;;
2039;SDS011;1025;42.686;23.350;2023-02-15T07:51:53;17.53;;;10.67;;
2039;SDS011;1025;42.686;23.350;2023-02-15T07:54:20;10.37;;;9.43;;
2039;SDS011;1025;42.686;23.350;2023-02-15T07:56:46;12.57;;;11.30;;
2039;SDS011;1025;42.686;23.350;2023-02-15T07:59:13;13.17;;;11.87;;
2039;SDS011;1025;42.686;23.350;2023-02-15T08:01:39;16.37;;;10.77;;
2039;SDS011;1025;42.686;23.350;2023-02-15T08:04:07;14.73;;;10.90;;
2039;SDS011;1025;42.686;23.350;2023-02-15T08:06:36;32.23;;;11.00;;
2039;SDS011;1025;42.686;23.350;2023-02-15T08:09:03;14.50;;;11.93;;
2039;SDS011;1025;42.686;23.350;2023-02-15T08:11:30;19.53;;;11.97;;
2039;SDS011;1025;42.686;23.350;2023-02-15T08:14:02;14.40;;;12.23;;
2039;SDS011;1025;42.686;23.350;2023-02-15T08:16:30;19.27;;;10.70;;
2039;SDS011;1025;42.686;23.350;2023-02-15T08:18:57;16.47;;;11.17;;
2039;SDS011;1025;42.686;23.350;2023-02-15T08:21:25;15.47;;;11.10;;
2039;SDS011;1025;42.686;23.350;2023-02-15T08:23:53;13.03;;;11.60;;
2039;SDS011;1025;42.686;23.350;2023-02-15T08:26:20;13.33;;;11.57;;
2039;SDS011;1025;42.686;23.350;2023-02-15T08:28:47;13.97;;;12.60;;
2039;SDS011;1025;42.686;23.350;2023-02-15T08:31:14;12.50;;;11.30;;
2039;SDS011;1025;42.686;23.350;2023-02-15T08:33:42;24.47;;;12.00;;
2039;SDS011;1025;42.686;23.350;2023-02-15T08:36:09;21.00;;;13.53;;
2039;SDS011;1025;42.686;23.350;2023-02-15T08:38:36;19.23;;;13.00;;
2039;SDS011;1025;42.686;23.350;2023-02-15T08:41:11;12.43;;;11.27;;
2039;SDS011;1025;42.686;23.350;2023-02-15T08:43:37;16.33;;;11.27;;
2039;SDS011;1025;42.686;23.350;2023-02-15T08:46:04;13.47;;;10.30;;
2039;SDS011;1025;42.686;23.350;2023-02-15T08:48:31;15.30;;;11.83;;
2039;SDS011;1025;42.686;23.350;2023-02-15T08:50:57;10.13;;;9.13;;
2039;SDS011;1025;42.686;23.350;2023-02-15T08:53:24;11.03;;;10.23;;
2039;SDS011;1025;42.686;23.350;2023-02-15T08:55:54;14.13;;;11.83;;
2039;SDS011;1025;42.686;23.350;2023-02-15T08:58:22;11.40;;;9.87;;
2039;SDS011;1025;42.686;23.350;2023-02-15T09:00:51;22.47;;;11.03;;
2039;SDS011;1025;42.686;23.350;2023-02-15T09:03:18;12.20;;;10.20;;
2039;SDS011;1025;42.686;23.350;2023-02-15T09:05:44;9.73;;;8.83;;
2039;SDS011;1025;42.686;23.350;2023-02-15T09:08:11;9.70;;;8.80;;
2039;SDS011;1025;42.686;23.350;2023-02-15T09:10:37;12.43;;;10.87;;
2039;SDS011;1025;42.686;23.350;2023-02-15T09:13:04;11.27;;;10.20;;
2039;SDS011;1025;42.686;23.350;2023-02-15T09:15:32;11.53;;;10.57;;
2039;SDS011;1025;42.686;23.350;2023-02-15T09:17:58;12.15;;;9.40;;
2039;SDS011;1025;42.686;23.350;2023-02-15T09:20:27;9.50;;;8.73;;
2039;SDS011;1025;42.686;23.350;2023-02-15T09:22:54;12.97;;;10.00;;
2039;SDS011;1025;42.686;23.350;2023-02-15T09:25:21;9.93;;;9.13;;
2039;SDS011;1025;42.686;23.350;2023-02-15T09:27:47;9.77;;;8.20;;
2039;SDS011;1025;42.686;23.350;2023-02-15T09:30:14;12.03;;;9.80;;
2039;SDS011;1025;42.686;23.350;2023-02-15T09:32:42;12.03;;;10.17;;
2039;SDS011;1025;42.686;23.350;2023-02-15T09:35:11;12.10;;;10.90;;
2039;SDS011;1025;42.686;23.350;2023-02-15T09:37:37;9.97;;;9.13;;
2039;SDS011;1025;42.686;23.350;2023-02-15T09:40:04;14.30;;;12.80;;
2039;SDS011;1025;42.686;23.350;2023-02-15T09:45:14;21.23;;;10.43;;
2039;SDS011;1025;42.686;23.350;2023-02-15T09:47:51;11.30;;;10.30;;
2039;SDS011;1025;42.686;23.350;2023-02-15T09:50:24;11.37;;;10.20;;
2039;SDS011;1025;42.686;23.350;2023-02-15T09:53:01;9.47;;;8.83;;
2039;SDS011;1025;42.686;23.350;2023-02-15T09:55:34;9.60;;;8.77;;
2039;SDS011;1025;42.686;23.350;2023-02-15T09:58:05;9.47;;;8.87;;
2039;SDS011;1025;42.686;23.350;2023-02-15T10:00:36;13.53;;;11.20;;
2039;SDS011;1025;42.686;23.350;2023-02-15T10:03:10;11.50;;;8.33;;
2039;SDS011;1025;42.686;23.350;2023-02-15T10:05:44;12.03;;;10.80;;
2039;SDS011;1025;42.686;23.350;2023-02-15T10:10:57;11.20;;;10.30;;
2039;SDS011;1025;42.686;23.350;2023-02-15T10:13:48;16.20;;;10.40;;
2039;SDS011;1025;42.686;23.350;2023-02-15T10:16:17;15.50;;;11.33;;
2039;SDS011;1025;42.686;23.350;2023-02-15T10:18:50;10.97;;;9.93;;
2039;SDS011;1025;42.686;23.350;2023-02-15T10:21:22;19.20;;;10.73;;
2039;SDS011;1025;42.686;23.350;2023-02-15T10:23:54;11.33;;;10.47;;
2039;SDS011;1025;42.686;23.350;2023-02-15T10:26:26;9.87;;;9.03;;
2039;SDS011;1025;42.686;23.350;2023-02-15T10:28:55;13.20;;;10.43;;
2039;SDS011;1025;42.686;23.350;2023-02-15T10:31:24;12.10;;;10.90;;
2039;SDS011;1025;42.686;23.350;2023-02-15T10:34:02;12.73;;;11.20;;
2039;SDS011;1025;42.686;23.350;2023-02-15T10:36:37;11.03;;;9.80;;
2039;SDS011;1025;42.686;23.350;2023-02-15T10:39:11;9.90;;;9.20;;
2039;SDS011;1025;42.686;23.350;2023-02-15T10:41:42;11.50;;;9.27;;
2039;SDS011;1025;42.686;23.350;2023-02-15T10:44:18;10.67;;;9.83;;
2039;SDS011;1025;42.686;23.350;2023-02-15T10:46:55;10.83;;;9.93;;
2039;SDS011;1025;42.686;23.350;2023-02-15T10:49:32;11.63;;;10.60;;
2039;SDS011;1025;42.686;23.350;2023-02-15T10:52:08;14.20;;;10.47;;
2039;SDS011;1025;42.686;23.350;2023-02-15T10:54:38;11.80;;;10.60;;
2039;SDS011;1025;42.686;23.350;2023-02-15T10:57:10;11.93;;;10.93;;
2039;SDS011;1025;42.686;23.350;2023-02-15T10:59:47;10.90;;;10.20;;
2039;SDS011;1025;42.686;23.350;2023-02-15T11:02:20;12.93;;;11.70;;
2039;SDS011;1025;42.686;23.350;2023-02-15T11:04:55;12.23;;;11.07;;
2039;SDS011;1025;42.686;23.350;2023-02-15T11:07:25;10.17;;;9.40;;
2039;SDS011;1025;42.686;23.350;2023-02-15T11:09:54;11.90;;;10.57;;
2039;SDS011;1025;42.686;23.350;2023-02-15T11:12:24;13.17;;;11.87;;
2039;SDS011;1025;42.686;23.350;2023-02-15T11:14:52;11.00;;;9.90;;
2039;SDS011;1025;42.686;23.350;2023-02-15T11:17:22;9.77;;;8.57;;
2039;SDS011;1025;42.686;23.350;2023-02-15T11:19:53;10.47;;;9.47;;
2039;SDS011;1025;42.686;23.350;2023-02-15T11:22:22;10.73;;;9.83;;
2039;SDS011;1025;42.686;23.350;2023-02-15T11:24:49;10.40;;;9.50;;
2039;SDS011;1025;42.686;23.350;2023-02-15T11:27:17;13.20;;;11.80;;
2039;SDS011;1025;42.686;23.350;2023-02-15T11:29:48;13.60;;;10.30;;
2039;SDS011;1025;42.686;23.350;2023-02-15T11:32:18;12.90;;;11.87;;
2039;SDS011;1025;42.686;23.350;2023-02-15T11:34:48;16.33;;;10.20;;
2039;SDS011;1025;42.686;23.350;2023-02-15T11:37:16;11.83;;;10.93;;
2039;SDS011;1025;42.686;23.350;2023-02-15T11:39:46;10.93;;;9.80;;
2039;SDS011;1025;42.686;23.350;2023-02-15T11:42:18;9.73;;;8.90;;
2039;SDS011;1025;42.686;23.350;2023-02-15T11:44:50;11.97;;;10.80;;
2039;SDS011;1025;42.686;23.350;2023-02-15T11:47:18;15.43;;;10.13;;
2039;SDS011;1025;42.686;23.350;2023-02-15T11:49:45;10.40;;;9.50;;
2039;SDS011;1025;42.686;23.350;2023-02-15T11:52:12;11.10;;;10.13;;
2039;SDS011;1025;42.686;23.350;2023-02-15T11:54:39;13.87;;;11.43;;
2039;SDS011;1025;42.686;23.350;2023-02-15T11:57:12;12.20;;;10.60;;
2039;SDS011;1025;42.686;23.350;2023-02-15T11:59:41;10.73;;;10.03;;
2039;SDS011;1025;42.686;23.350;2023-02-15T12:02:14;17.53;;;11.20;;
2039;SDS011;1025;42.686;23.350;2023-02-15T12:04:42;14.60;;;8.93;;
2039;SDS011;1025;42.686;23.350;2023-02-15T12:07:11;12.27;;;10.90;;
2039;SDS011;1025;42.686;23.350;2023-02-15T12:09:42;12.97;;;11.87;;
2039;SDS011;1025;42.686;23.350;2023-02-15T12:12:24;9.13;;;8.53;;
2039;SDS011;1025;42.686;23.350;2023-02-15T12:14:51;15.03;;;11.17;;
2039;SDS011;1025;42.686;23.350;2023-02-15T12:17:18;11.47;;;10.57;;
2039;SDS011;1025;42.686;23.350;2023-02-15T12:19:46;11.00;;;9.97;;
2039;SDS011;1025;42.686;23.350;2023-02-15T12:22:20;9.80;;;8.80;;
2039;SDS011;1025;42.686;23.350;2023-02-15T12:24:49;11.10;;;9.80;;
2039;SDS011;1025;42.686;23.350;2023-02-15T12:27:17;10.23;;;9.30;;
2039;SDS011;1025;42.686;23.350;2023-02-15T12:29:48;12.87;;;11.70;;
2039;SDS011;1025;42.686;23.350;2023-02-15T12:32:17;10.97;;;9.87;;
2039;SDS011;1025;42.686;23.350;2023-02-15T12:34:44;11.90;;;9.77;;
2039;SDS011;1025;42.686;23.350;2023-02-15T12:37:15;9.70;;;9.07;;
2039;SDS011;1025;42.686;23.350;2023-02-15T12:39:50;12.50;;;10.93;;
2039;SDS011;1025;42.686;23.350;2023-02-15T12:42:17;11.43;;;10.53;;
2039;SDS011;1025;42.686;23.350;2023-02-15T12:44:53;13.03;;;11.70;;
2039;SDS011;1025;42.686;23.350;2023-02-15T12:47:20;10.90;;;9.80;;
2039;SDS011;1025;42.686;23.350;2023-02-15T12:50:03;11.70;;;10.70;;
2039;SDS011;1025;42.686;23.350;2023-02-15T12:52:30;10.63;;;9.83;;
2039;SDS011;1025;42.686;23.350;2023-02-15T12:54:58;10.57;;;9.67;;
2039;SDS011;1025;42.686;23.350;2023-02-15T12:57:35;11.67;;;9.10;;
2039;SDS011;1025;42.686;23.350;2023-02-15T13:00:04;11.50;;;10.50;;
2039;SDS011;1025;42.686;23.350;2023-02-15T13:02:34;11.70;;;10.70;;
2039;SDS011;1025;42.686;23.350;2023-02-15T13:05:10;11.33;;;10.30;;
2039;SDS011;1025;42.686;23.350;2023-02-15T13:07:44;8.87;;;8.27;;
2039;SDS011;1025;42.686;23.350;2023-02-15T13:10:18;12.33;;;8.73;;
2039;SDS011;1025;42.686;23.350;2023-02-15T13:12:46;15.63;;;10.70;;
2039;SDS011;1025;42.686;23.350;2023-02-15T13:15:23;11.73;;;10.60;;
2039;SDS011;1025;42.686;23.350;2023-02-15T13:17:51;10.70;;;9.40;;
2039;SDS011;1025;42.686;23.350;2023-02-15T13:20:18;8.83;;;8.13;;
2039;SDS011;1025;42.686;23.350;2023-02-15T13:22:47;11.47;;;10.30;;
2039;SDS011;1025;42.686;23.350;2023-02-15T13:25:17;11.37;;;8.73;;
2039;SDS011;1025;42.686;23.350;2023-02-15T13:27:45;11.00;;;10.03;;
2039;SDS011;1025;42.686;23.350;2023-02-15T13:30:20;12.50;;;11.33;;
2039;SDS011;1025;42.686;23.350;2023-02-15T13:32:50;11.43;;;10.43;;
2039;SDS011;1025;42.686;23.350;2023-02-15T13:35:18;8.60;;;7.87;;
2039;SDS011;1025;42.686;23.350;2023-02-15T13:37:50;12.43;;;9.50;;
2039;SDS011;1025;42.686;23.350;2023-02-15T13:40:22;11.27;;;10.37;;
2039;SDS011;1025;42.686;23.350;2023-02-15T13:42:52;12.63;;;11.60;;
2039;SDS011;1025;42.686;23.350;2023-02-15T13:45:26;22.77;;;11.60;;
2039;SDS011;1025;42.686;23.350;2023-02-15T13:47:59;12.37;;;9.87;;
2039;SDS011;1025;42.686;23.350;2023-02-15T13:50:33;11.63;;;10.57;;
2039;SDS011;1025;42.686;23.350;2023-02-15T13:53:09;10.07;;;9.27;;
2039;SDS011;1025;42.686;23.350;2023-02-15T13:55:39;10.27;;;9.37;;
2039;SDS011;1025;42.686;23.350;2023-02-15T13:58:29;9.67;;;9.00;;
2039;SDS011;1025;42.686;23.350;2023-02-15T14:01:01;12.37;;;10.60;;
2039;SDS011;1025;42.686;23.350;2023-02-15T14:03:51;9.90;;;9.10;;
2039;SDS011;1025;42.686;23.350;2023-02-15T14:06:23;11.70;;;10.77;;
2039;SDS011;1025;42.686;23.350;2023-02-15T14:08:55;12.50;;;11.33;;
2039;SDS011;1025;42.686;23.350;2023-02-15T14:11:26;11.40;;;10.50;;
2039;SDS011;1025;42.686;23.350;2023-02-15T14:16:45;12.80;;;11.60;;
2039;SDS011;1025;42.686;23.350;2023-02-15T14:19:19;13.30;;;12.40;;
2039;SDS011;1025;42.686;23.350;2023-02-15T14:21:48;14.50;;;11.00;;
2039;SDS011;1025;42.686;23.350;2023-02-15T14:24:22;12.70;;;11.40;;
2039;SDS011;1025;42.686;23.350;2023-02-15T14:26:52;11.00;;;10.23;;
2039;SDS011;1025;42.686;23.350;2023-02-15T14:29:25;13.70;;;12.37;;
2039;SDS011;1025;42.686;23.350;2023-02-15T14:31:55;14.20;;;12.80;;
2039;SDS011;1025;42.686;23.350;2023-02-15T14:34:25;10.13;;;9.20;;
2039;SDS011;1025;42.686;23.350;2023-02-15T14:36:54;11.40;;;10.70;;
2039;SDS011;1025;42.686;23.350;2023-02-15T14:39:26;12.60;;;10.73;;
2039;SDS011;1025;42.686;23.350;2023-02-15T14:42:16;11.30;;;10.17;;
2039;SDS011;1025;42.686;23.350;2023-02-15T14:44:45;11.10;;;10.23;;
2039;SDS011;1025;42.686;23.350;2023-02-15T14:47:13;10.83;;;10.03;;
2039;SDS011;1025;42.686;23.350;2023-02-15T14:49:44;14.37;;;12.93;;
2039;SDS011;1025;42.686;23.350;2023-02-15T14:52:11;12.30;;;11.33;;
2039;SDS011;1025;42.686;23.350;2023-02-15T14:57:24;13.97;;;11.63;;
2039;SDS011;1025;42.686;23.350;2023-02-15T14:59:53;13.23;;;11.93;;
2039;SDS011;1025;42.686;23.350;2023-02-15T15:02:22;10.47;;;9.67;;
2039;SDS011;1025;42.686;23.350;2023-02-15T15:04:55;12.13;;;11.03;;
2039;SDS011;1025;42.686;23.350;2023-02-15T15:07:23;12.97;;;12.00;;
2039;SDS011;1025;42.686;23.350;2023-02-15T15:09:57;13.10;;;11.73;;